Wetterdaten: Woche 15.07.13 - 21.07.13 (KW29)
Datum Zeit Temp. A. Feuchte A. Luftdruck Regen Wind Richtung Taupunkt Windchill Windben
15.07.2013 00:00 11,8 C 89 % 1022,0 hPa 0,0 l/m 0,4 km/h (0 Bft) N 10,0 C 11,8 C 2,3 km/h (1 Bft)
15.07.2013 01:00 10,9 C 91 % 1022,0 hPa 0,0 l/m 0,2 km/h (0 Bft) N 9,4 C 10,9 C 1,6 km/h (1 Bft)
15.07.2013 02:00 10,4 C 92 % 1021,9 hPa 0,0 l/m 0,3 km/h (0 Bft) N 9,1 C 10,4 C 2,0 km/h (1 Bft)
15.07.2013 03:00 9,9 C 93 % 1021,7 hPa 0,0 l/m 0,1 km/h (0 Bft) N 8,7 C 9,9 C 1,3 km/h (1 Bft)
15.07.2013 04:00 9,6 C 94 % 1021,7 hPa 0,0 l/m 0,1 km/h (0 Bft) N 8,6 C 9,6 C 0,8 km/h (0 Bft)
15.07.2013 05:00 9,6 C 94 % 1021,7 hPa 0,0 l/m 0,0 km/h (0 Bft) N 8,7 C 9,6 C 0,0 km/h (0 Bft)
15.07.2013 06:00 9,8 C 94 % 1022,0 hPa 0,0 l/m 0,1 km/h (0 Bft) W-NW 8,9 C 9,8 C 0,4 km/h (0 Bft)
15.07.2013 07:00 10,7 C 94 % 1022,2 hPa 0,0 l/m 0,3 km/h (0 Bft) N 9,7 C 10,7 C 2,7 km/h (1 Bft)
15.07.2013 08:00 13,9 C 87 % 1022,5 hPa 0,0 l/m 1,9 km/h (1 Bft) W 11,7 C 13,9 C 5,9 km/h (2 Bft)
15.07.2013 09:00 15,9 C 79 % 1022,5 hPa 0,0 l/m 3,1 km/h (1 Bft) W-SW 12,2 C 15,9 C 7,9 km/h (2 Bft)
15.07.2013 10:00 17,3 C 72 % 1022,4 hPa 0,0 l/m 4,1 km/h (1 Bft) NW 12,3 C 17,3 C 10,3 km/h (2 Bft)
15.07.2013 11:00 18,8 C 68 % 1022,3 hPa 0,0 l/m 3,5 km/h (1 Bft) N-NW 12,7 C 18,8 C 8,3 km/h (2 Bft)
15.07.2013 12:00 19,9 C 64 % 1022,2 hPa 0,0 l/m 3,8 km/h (1 Bft) NW 12,9 C 19,9 C 10,5 km/h (2 Bft)
15.07.2013 13:00 21,2 C 59 % 1021,9 hPa 0,0 l/m 4,1 km/h (1 Bft) W-SW 12,9 C 21,2 C 10,5 km/h (2 Bft)
15.07.2013 14:00 21,9 C 57 % 1021,8 hPa 0,0 l/m 4,6 km/h (1 Bft) W-NW 13,0 C 21,9 C 9,5 km/h (2 Bft)
15.07.2013 15:00 22,3 C 55 % 1021,8 hPa 0,0 l/m 3,7 km/h (1 Bft) W-NW 12,8 C 22,3 C 9,1 km/h (2 Bft)
15.07.2013 16:00 23,3 C 50 % 1021,6 hPa 0,0 l/m 3,5 km/h (1 Bft) NW 12,3 C 23,3 C 9,3 km/h (2 Bft)
15.07.2013 17:00 23,1 C 51 % 1021,5 hPa 0,0 l/m 4,4 km/h (1 Bft) N-NW 12,6 C 23,1 C 9,3 km/h (2 Bft)
15.07.2013 18:00 23,0 C 53 % 1021,4 hPa 0,0 l/m 5,0 km/h (1 Bft) N-NW 12,8 C 23,0 C 9,9 km/h (2 Bft)
15.07.2013 19:00 22,7 C 52 % 1021,5 hPa 0,0 l/m 3,8 km/h (1 Bft) N-NW 12,3 C 22,7 C 8,4 km/h (2 Bft)
15.07.2013 20:00 21,8 C 56 % 1021,5 hPa 0,0 l/m 0,8 km/h (0 Bft) NW 12,5 C 21,8 C 2,4 km/h (1 Bft)
15.07.2013 21:00 18,0 C 71 % 1021,6 hPa 0,0 l/m 0,0 km/h (0 Bft) N 12,6 C 18,0 C 0,0 km/h (0 Bft)
15.07.2013 22:00 14,4 C 85 % 1022,1 hPa 0,0 l/m 0,0 km/h (0 Bft) N 11,9 C 14,4 C 0,0 km/h (0 Bft)
15.07.2013 23:00 12,6 C 90 % 1022,4 hPa 0,0 l/m 0,0 km/h (0 Bft) N 11,0 C 12,6 C 0,0 km/h (0 Bft)
16.07.2013 00:00 11,4 C 91 % 1022,6 hPa 0,0 l/m 0,0 km/h (0 Bft) N 10,1 C 11,4 C 0,0 km/h (0 Bft)
16.07.2013 01:00 10,5 C 93 % 1022,7 hPa 0,0 l/m 0,0 km/h (0 Bft) N 9,4 C 10,5 C 0,0 km/h (0 Bft)
16.07.2013 02:00 9,5 C 94 % 1023,0 hPa 0,0 l/m 0,0 km/h (0 Bft) N 8,6 C 9,5 C 0,0 km/h (0 Bft)
16.07.2013 03:00 8,3 C 95 % 1023,0 hPa 0,0 l/m 0,0 km/h (0 Bft) N 7,5 C 8,3 C 0,0 km/h (0 Bft)
16.07.2013 04:00 7,3 C 95 % 1023,1 hPa 0,0 l/m 0,0 km/h (0 Bft) N 6,6 C 7,3 C 0,0 km/h (0 Bft)
16.07.2013 05:00 6,8 C 95 % 1023,2 hPa 0,0 l/m 0,0 km/h (0 Bft) N 6,1 C 6,8 C 0,0 km/h (0 Bft)
16.07.2013 06:00 8,8 C 95 % 1023,3 hPa 0,0 l/m 0,0 km/h (0 Bft) N 8,2 C 8,8 C 0,0 km/h (0 Bft)
16.07.2013 07:00 11,2 C 93 % 1023,7 hPa 0,0 l/m 0,0 km/h (0 Bft) N 10,0 C 11,2 C 0,0 km/h (0 Bft)
16.07.2013 08:00 14,3 C 89 % 1024,0 hPa 0,0 l/m 0,0 km/h (0 Bft) N 12,4 C 14,3 C 0,0 km/h (0 Bft)
16.07.2013 09:00 18,0 C 78 % 1024,0 hPa 0,0 l/m 1,8 km/h (1 Bft) S 14,0 C 18,0 C 5,9 km/h (2 Bft)
16.07.2013 10:00 20,0 C 63 % 1023,9 hPa 0,0 l/m 3,4 km/h (1 Bft) S 12,7 C 20,0 C 8,1 km/h (2 Bft)
16.07.2013 11:00 21,9 C 56 % 1023,7 hPa 0,0 l/m 3,0 km/h (1 Bft) NW 12,7 C 21,9 C 8,0 km/h (2 Bft)
16.07.2013 12:00 23,4 C 51 % 1023,4 hPa 0,0 l/m 3,8 km/h (1 Bft) W-SW 12,8 C 23,4 C 9,8 km/h (2 Bft)
16.07.2013 13:00 24,6 C 48 % 1023,2 hPa 0,0 l/m 3,0 km/h (1 Bft) NW 12,7 C 24,6 C 8,2 km/h (2 Bft)
16.07.2013 14:00 24,8 C 46 % 1022,8 hPa 0,0 l/m 3,5 km/h (1 Bft) NO 12,4 C 24,8 C 7,8 km/h (2 Bft)
16.07.2013 15:00 25,5 C 42 % 1022,5 hPa 0,0 l/m 2,4 km/h (1 Bft) SW 11,5 C 25,5 C 6,4 km/h (2 Bft)
16.07.2013 16:00 25,5 C 42 % 1022,2 hPa 0,0 l/m 1,8 km/h (1 Bft) S-SW 11,8 C 25,5 C 5,7 km/h (2 Bft)
16.07.2013 17:00 25,1 C 45 % 1022,1 hPa 0,0 l/m 1,6 km/h (1 Bft) N-NW 12,4 C 25,1 C 4,5 km/h (1 Bft)
16.07.2013 18:00 24,8 C 46 % 1021,9 hPa 0,0 l/m 1,4 km/h (1 Bft) W-NW 12,3 C 24,8 C 4,1 km/h (1 Bft)
16.07.2013 19:00 24,1 C 51 % 1021,9 hPa 0,0 l/m 0,7 km/h (0 Bft) W-NW 13,2 C 24,1 C 3,2 km/h (1 Bft)
16.07.2013 20:00 22,5 C 58 % 1022,0 hPa 0,0 l/m 0,1 km/h (0 Bft) N 13,8 C 22,5 C 0,3 km/h (0 Bft)
16.07.2013 21:00 18,9 C 79 % 1022,3 hPa 0,0 l/m 1,0 km/h (0 Bft) N-NO 15,0 C 18,9 C 1,9 km/h (1 Bft)
16.07.2013 22:00 17,3 C 84 % 1022,5 hPa 0,0 l/m 0,0 km/h (0 Bft) N 14,5 C 17,3 C 0,0 km/h (0 Bft)
16.07.2013 23:00 15,4 C 89 % 1022,5 hPa 0,0 l/m 0,0 km/h (0 Bft) N 13,6 C 15,4 C 0,0 km/h (0 Bft)
17.07.2013 00:00 14,4 C 92 % 1022,7 hPa 0,0 l/m 0,0 km/h (0 Bft) N 13,0 C 14,4 C 0,0 km/h (0 Bft)
17.07.2013 01:00 13,5 C 94 % 1022,7 hPa 0,0 l/m 0,0 km/h (0 Bft) N 12,5 C 13,5 C 0,0 km/h (0 Bft)
17.07.2013 02:00 12,9 C 94 % 1022,9 hPa 0,0 l/m 0,0 km/h (0 Bft) N 12,0 C 12,9 C 0,0 km/h (0 Bft)
17.07.2013 03:00 12,2 C 95 % 1023,0 hPa 0,0 l/m 0,0 km/h (0 Bft) N 11,4 C 12,2 C 0,0 km/h (0 Bft)
17.07.2013 04:00 11,0 C 95 % 1023,1 hPa 0,0 l/m 0,0 km/h (0 Bft) N 10,2 C 11,0 C 0,0 km/h (0 Bft)
17.07.2013 05:00 10,5 C 96 % 1023,3 hPa 0,0 l/m 0,0 km/h (0 Bft) N 9,8 C 10,5 C 0,0 km/h (0 Bft)
17.07.2013 06:00 11,4 C 96 % 1023,6 hPa 0,0 l/m 0,0 km/h (0 Bft) N 10,8 C 11,4 C 0,0 km/h (0 Bft)
17.07.2013 07:00 14,0 C 96 % 1023,9 hPa 0,0 l/m 0,0 km/h (0 Bft) N 13,4 C 14,0 C 0,0 km/h (0 Bft)
17.07.2013 08:00 17,7 C 86 % 1024,0 hPa 0,0 l/m 1,5 km/h (1 Bft) NW 15,3 C 17,7 C 3,3 km/h (1 Bft)
17.07.2013 09:00 21,0 C 67 % 1024,0 hPa 0,0 l/m 1,8 km/h (1 Bft) NW 14,7 C 21,0 C 4,8 km/h (1 Bft)
17.07.2013 10:00 22,7 C 63 % 1023,9 hPa 0,0 l/m 3,5 km/h (1 Bft) NW 15,3 C 22,7 C 8,3 km/h (2 Bft)
17.07.2013 11:00 24,1 C 58 % 1023,7 hPa 0,0 l/m 2,8 km/h (1 Bft) W 15,4 C 24,1 C 7,5 km/h (2 Bft)
17.07.2013 12:00 25,3 C 54 % 1023,4 hPa 0,0 l/m 4,1 km/h (1 Bft) W 15,4 C 25,3 C 9,9 km/h (2 Bft)
17.07.2013 13:00 26,1 C 50 % 1023,2 hPa 0,0 l/m 5,3 km/h (1 Bft) NW 14,8 C 26,1 C 12,2 km/h (2 Bft)
17.07.2013 14:00 27,0 C 48 % 1023,0 hPa 0,0 l/m 5,0 km/h (1 Bft) N-NO 15,1 C 27,0 C 11,6 km/h (2 Bft)
17.07.2013 15:00 27,3 C 50 % 1022,9 hPa 0,0 l/m 9,3 km/h (2 Bft) N 15,8 C 26,8 C 17,6 km/h (3 Bft)
17.07.2013 16:00 26,4 C 52 % 1022,8 hPa 0,0 l/m 8,1 km/h (2 Bft) N-NO 15,8 C 26,1 C 15,3 km/h (3 Bft)
17.07.2013 17:00 26,5 C 51 % 1022,6 hPa 0,0 l/m 8,5 km/h (2 Bft) N 15,5 C 26,1 C 15,3 km/h (3 Bft)
17.07.2013 18:00 25,6 C 54 % 1022,6 hPa 0,0 l/m 8,2 km/h (2 Bft) N 15,5 C 25,2 C 14,2 km/h (3 Bft)
17.07.2013 19:00 23,8 C 63 % 1022,6 hPa 0,0 l/m 4,4 km/h (1 Bft) N 16,2 C 23,8 C 7,5 km/h (2 Bft)
17.07.2013 20:00 22,1 C 71 % 1022,8 hPa 0,0 l/m 2,8 km/h (1 Bft) N 16,7 C 22,1 C 5,3 km/h (1 Bft)
17.07.2013 21:00 20,2 C 78 % 1023,2 hPa 0,0 l/m 1,4 km/h (1 Bft) N 16,3 C 20,2 C 1,9 km/h (1 Bft)
17.07.2013 22:00 18,7 C 82 % 1023,4 hPa 0,0 l/m 0,6 km/h (0 Bft) N-NW 15,6 C 18,7 C 0,9 km/h (0 Bft)
17.07.2013 23:00 16,8 C 88 % 1023,6 hPa 0,0 l/m 0,0 km/h (0 Bft) N 14,7 C 16,8 C 0,0 km/h (0 Bft)
18.07.2013 00:00 14,9 C 92 % 1023,8 hPa 0,0 l/m 0,0 km/h (0 Bft) N 13,6 C 14,9 C 0,0 km/h (0 Bft)
18.07.2013 01:00 14,6 C 93 % 1024,0 hPa 0,0 l/m 0,0 km/h (0 Bft) N 13,5 C 14,6 C 0,0 km/h (0 Bft)
18.07.2013 02:00 14,7 C 94 % 1024,1 hPa 0,0 l/m 0,0 km/h (0 Bft) N 13,7 C 14,7 C 0,0 km/h (0 Bft)
18.07.2013 03:00 14,3 C 94 % 1024,1 hPa 0,0 l/m 0,0 km/h (0 Bft) N 13,3 C 14,3 C 0,0 km/h (0 Bft)
18.07.2013 04:00 13,0 C 94 % 1024,1 hPa 0,0 l/m 0,0 km/h (0 Bft) N 12,2 C 13,0 C 0,0 km/h (0 Bft)
18.07.2013 05:00 12,8 C 95 % 1024,2 hPa 0,0 l/m 0,0 km/h (0 Bft) N 12,1 C 12,8 C 0,0 km/h (0 Bft)
18.07.2013 06:00 15,3 C 95 % 1024,3 hPa 0,0 l/m 0,0 km/h (0 Bft) N 14,5 C 15,3 C 0,0 km/h (0 Bft)
18.07.2013 07:00 17,5 C 91 % 1024,5 hPa 0,0 l/m 1,2 km/h (1 Bft) N-NO 16,0 C 17,5 C 3,2 km/h (1 Bft)
18.07.2013 08:00 20,2 C 80 % 1024,6 hPa 0,0 l/m 4,2 km/h (1 Bft) N-NO 16,6 C 20,2 C 7,8 km/h (2 Bft)
18.07.2013 09:00 22,1 C 73 % 1024,6 hPa 0,0 l/m 5,1 km/h (1 Bft) N 16,9 C 22,1 C 9,7 km/h (2 Bft)
18.07.2013 10:00 23,5 C 66 % 1024,5 hPa 0,0 l/m 5,8 km/h (2 Bft) O 16,7 C 23,4 C 12,5 km/h (2 Bft)
18.07.2013 11:00 24,6 C 59 % 1024,4 hPa 0,0 l/m 4,4 km/h (1 Bft) O-NO 16,0 C 24,6 C 10,3 km/h (2 Bft)
18.07.2013 12:00 25,8 C 52 % 1024,0 hPa 0,0 l/m 4,5 km/h (1 Bft) N-NO 15,2 C 25,8 C 11,2 km/h (2 Bft)
18.07.2013 13:00 26,3 C 50 % 1023,8 hPa 0,0 l/m 5,7 km/h (2 Bft) NO 15,1 C 26,2 C 11,1 km/h (2 Bft)
18.07.2013 14:00 26,7 C 48 % 1023,5 hPa 0,0 l/m 5,7 km/h (2 Bft) N-NO 14,8 C 26,5 C 11,7 km/h (2 Bft)
18.07.2013 15:00 27,3 C 45 % 1023,2 hPa 0,0 l/m 5,4 km/h (1 Bft) NW 14,2 C 27,2 C 11,5 km/h (2 Bft)
18.07.2013 16:00 27,0 C 47 % 1022,8 hPa 0,0 l/m 5,3 km/h (1 Bft) N-NO 14,6 C 27,0 C 10,9 km/h (2 Bft)
18.07.2013 17:00 26,3 C 50 % 1022,5 hPa 0,0 l/m 5,7 km/h (2 Bft) N 15,1 C 26,3 C 11,3 km/h (2 Bft)
18.07.2013 18:00 26,3 C 50 % 1022,2 hPa 0,0 l/m 6,6 km/h (2 Bft) N-NO 14,9 C 26,2 C 13,0 km/h (3 Bft)
18.07.2013 19:00 25,4 C 53 % 1022,2 hPa 0,0 l/m 7,7 km/h (2 Bft) N-NO 15,0 C 25,1 C 14,0 km/h (3 Bft)
18.07.2013 20:00 23,8 C 60 % 1022,1 hPa 0,0 l/m 3,3 km/h (1 Bft) N 15,4 C 23,8 C 6,0 km/h (2 Bft)
18.07.2013 21:00 20,4 C 73 % 1022,3 hPa 0,0 l/m 2,9 km/h (1 Bft) N-NW 15,2 C 20,4 C 5,3 km/h (1 Bft)
18.07.2013 22:00 18,6 C 79 % 1022,9 hPa 0,0 l/m 2,6 km/h (1 Bft) N-NW 14,8 C 18,6 C 4,7 km/h (1 Bft)
18.07.2013 23:00 17,5 C 82 % 1023,2 hPa 0,0 l/m 1,2 km/h (1 Bft) N-NW 14,3 C 17,5 C 2,7 km/h (1 Bft)
19.07.2013 00:00 16,3 C 85 % 1023,3 hPa 0,0 l/m 0,0 km/h (0 Bft) N 13,7 C 16,3 C 0,0 km/h (0 Bft)
19.07.2013 01:00 15,5 C 87 % 1023,2 hPa 0,0 l/m 0,0 km/h (0 Bft) N 13,3 C 15,5 C 0,0 km/h (0 Bft)
19.07.2013 02:00 14,4 C 89 % 1023,1 hPa 0,0 l/m 0,0 km/h (0 Bft) N 12,7 C 14,4 C 0,0 km/h (0 Bft)
19.07.2013 03:00 14,0 C 90 % 1023,0 hPa 0,0 l/m 0,0 km/h (0 Bft) N 12,4 C 14,0 C 0,0 km/h (0 Bft)
19.07.2013 04:00 13,4 C 91 % 1022,8 hPa 0,0 l/m 0,0 km/h (0 Bft) N 12,0 C 13,4 C 0,0 km/h (0 Bft)
19.07.2013 05:00 13,3 C 92 % 1022,5 hPa 0,0 l/m 0,0 km/h (0 Bft) N 11,9 C 13,3 C 0,3 km/h (0 Bft)
19.07.2013 06:00 14,3 C 90 % 1022,4 hPa 0,0 l/m 1,4 km/h (1 Bft) W 12,7 C 14,3 C 4,4 km/h (1 Bft)
19.07.2013 07:00 16,0 C 88 % 1022,5 hPa 0,0 l/m 1,3 km/h (1 Bft) S-SW 14,1 C 16,0 C 4,1 km/h (1 Bft)
19.07.2013 08:00 19,0 C 80 % 1022,4 hPa 0,0 l/m 3,1 km/h (1 Bft) W-NW 15,5 C 19,0 C 7,5 km/h (2 Bft)
19.07.2013 09:00 21,4 C 70 % 1022,0 hPa 0,0 l/m 5,9 km/h (2 Bft) W-NW 15,6 C 21,2 C 11,9 km/h (2 Bft)
19.07.2013 10:00 23,0 C 63 % 1021,7 hPa 0,0 l/m 5,6 km/h (2 Bft) NW 15,7 C 23,0 C 13,7 km/h (3 Bft)
19.07.2013 11:00 24,0 C 60 % 1021,5 hPa 0,0 l/m 6,9 km/h (2 Bft) NW 15,8 C 23,8 C 15,7 km/h (3 Bft)
19.07.2013 12:00 24,0 C 60 % 1021,3 hPa 0,0 l/m 7,5 km/h (2 Bft) NW 15,8 C 23,7 C 16,2 km/h (3 Bft)
19.07.2013 13:00 24,4 C 57 % 1021,1 hPa 0,0 l/m 7,6 km/h (2 Bft) W 15,4 C 24,1 C 18,1 km/h (3 Bft)
19.07.2013 14:00 24,6 C 56 % 1020,9 hPa 0,0 l/m 8,0 km/h (2 Bft) NW 15,2 C 24,2 C 18,0 km/h (3 Bft)
19.07.2013 15:00 24,6 C 55 % 1020,7 hPa 0,0 l/m 6,8 km/h (2 Bft) NW 14,9 C 24,4 C 15,2 km/h (3 Bft)
19.07.2013 16:00 25,3 C 53 % 1020,3 hPa 0,0 l/m 5,5 km/h (2 Bft) NW 14,9 C 25,3 C 13,7 km/h (3 Bft)
19.07.2013 17:00 25,7 C 54 % 1019,7 hPa 0,0 l/m 6,4 km/h (2 Bft) NW 15,7 C 25,6 C 14,2 km/h (3 Bft)
19.07.2013 18:00 25,1 C 56 % 1019,5 hPa 0,0 l/m 8,0 km/h (2 Bft) NW 15,7 C 24,7 C 16,0 km/h (3 Bft)
19.07.2013 19:00 24,1 C 60 % 1019,5 hPa 0,0 l/m 7,5 km/h (2 Bft) NW 15,7 C 23,8 C 15,8 km/h (3 Bft)
19.07.2013 20:00 22,2 C 63 % 1019,6 hPa 0,0 l/m 8,5 km/h (2 Bft) NW 14,9 C 21,5 C 16,2 km/h (3 Bft)
19.07.2013 21:00 20,1 C 70 % 1020,0 hPa 0,0 l/m 2,7 km/h (1 Bft) NW 14,5 C 20,1 C 6,4 km/h (2 Bft)
19.07.2013 22:00 17,6 C 80 % 1020,5 hPa 0,0 l/m 3,1 km/h (1 Bft) NW 14,1 C 17,6 C 6,6 km/h (2 Bft)
19.07.2013 23:00 16,3 C 85 % 1020,9 hPa 0,0 l/m 3,1 km/h (1 Bft) N-NW 13,8 C 16,3 C 6,6 km/h (2 Bft)
20.07.2013 00:00 16,0 C 87 % 1021,2 hPa 0,0 l/m 0,5 km/h (0 Bft) NW 13,8 C 16,0 C 2,1 km/h (1 Bft)
20.07.2013 01:00 16,6 C 85 % 1021,1 hPa 0,0 l/m 5,0 km/h (1 Bft) N-NW 14,1 C 16,5 C 9,7 km/h (2 Bft)
20.07.2013 02:00 16,7 C 84 % 1020,9 hPa 0,0 l/m 2,3 km/h (1 Bft) NW 13,9 C 16,7 C 5,8 km/h (2 Bft)
20.07.2013 03:00 16,6 C 84 % 1021,0 hPa 0,0 l/m 0,1 km/h (0 Bft) N 13,9 C 16,6 C 0,3 km/h (0 Bft)
20.07.2013 04:00 16,4 C 85 % 1020,9 hPa 0,0 l/m 0,1 km/h (0 Bft) N 13,8 C 16,4 C 0,7 km/h (0 Bft)
20.07.2013 05:00 16,2 C 86 % 1021,1 hPa 0,0 l/m 0,2 km/h (0 Bft) N 13,8 C 16,2 C 1,1 km/h (0 Bft)
20.07.2013 06:00 16,2 C 86 % 1021,2 hPa 0,0 l/m 1,0 km/h (0 Bft) NW 13,9 C 16,2 C 2,9 km/h (1 Bft)
20.07.2013 07:00 16,6 C 85 % 1021,4 hPa 0,0 l/m 2,7 km/h (1 Bft) N-NW 14,2 C 16,6 C 5,7 km/h (2 Bft)
20.07.2013 08:00 17,3 C 84 % 1021,6 hPa 0,0 l/m 3,9 km/h (1 Bft) N 14,5 C 17,3 C 7,9 km/h (2 Bft)
20.07.2013 09:00 19,1 C 79 % 1021,6 hPa 0,0 l/m 2,9 km/h (1 Bft) N-NO 15,4 C 19,1 C 6,1 km/h (2 Bft)
20.07.2013 10:00 21,1 C 73 % 1021,7 hPa 0,0 l/m 2,8 km/h (1 Bft) SW 16,0 C 21,1 C 7,7 km/h (2 Bft)
20.07.2013 11:00 22,6 C 65 % 1021,7 hPa 0,0 l/m 6,4 km/h (2 Bft) N-NO 15,5 C 22,3 C 13,3 km/h (3 Bft)
20.07.2013 12:00 24,0 C 57 % 1021,7 hPa 0,0 l/m 6,8 km/h (2 Bft) NO 14,9 C 23,8 C 13,3 km/h (3 Bft)
20.07.2013 13:00 25,4 C 45 % 1021,5 hPa 0,0 l/m 6,3 km/h (2 Bft) N-NO 12,3 C 25,2 C 14,4 km/h (3 Bft)
20.07.2013 14:00 26,0 C 39 % 1021,3 hPa 0,0 l/m 6,9 km/h (2 Bft) O-NO 11,0 C 25,8 C 14,5 km/h (3 Bft)
20.07.2013 15:00 26,6 C 35 % 1021,1 hPa 0,0 l/m 7,0 km/h (2 Bft) NO 9,6 C 26,4 C 13,0 km/h (3 Bft)
20.07.2013 16:00 26,8 C 32 % 1020,9 hPa 0,0 l/m 8,0 km/h (2 Bft) N-NW 8,9 C 26,5 C 15,8 km/h (3 Bft)
20.07.2013 17:00 27,0 C 35 % 1020,7 hPa 0,0 l/m 7,5 km/h (2 Bft) N-NO 10,4 C 26,8 C 14,8 km/h (3 Bft)
20.07.2013 18:00 26,8 C 36 % 1020,5 hPa 0,0 l/m 6,5 km/h (2 Bft) NO 10,3 C 26,6 C 12,9 km/h (3 Bft)
20.07.2013 19:00 25,9 C 38 % 1020,5 hPa 0,0 l/m 6,3 km/h (2 Bft) N-NO 10,6 C 25,9 C 11,7 km/h (2 Bft)
20.07.2013 20:00 23,9 C 46 % 1020,5 hPa 0,0 l/m 3,9 km/h (1 Bft) N-NO 11,5 C 23,9 C 6,7 km/h (2 Bft)
20.07.2013 21:00 19,1 C 62 % 1021,0 hPa 0,0 l/m 1,3 km/h (1 Bft) N-NO 11,6 C 19,1 C 2,3 km/h (1 Bft)
20.07.2013 22:00 16,2 C 72 % 1021,5 hPa 0,0 l/m 0,2 km/h (0 Bft) N-NO 11,1 C 16,2 C 0,4 km/h (0 Bft)
20.07.2013 23:00 14,1 C 77 % 1021,8 hPa 0,0 l/m 0,0 km/h (0 Bft) N 10,2 C 14,1 C 0,0 km/h (0 Bft)
21.07.2013 00:00 13,0 C 82 % 1022,0 hPa 0,0 l/m 0,0 km/h (0 Bft) N 10,1 C 13,0 C 0,0 km/h (0 Bft)
21.07.2013 01:00 12,5 C 83 % 1022,4 hPa 0,0 l/m 0,0 km/h (0 Bft) N 9,7 C 12,5 C 0,0 km/h (0 Bft)
21.07.2013 02:00 11,3 C 88 % 1022,5 hPa 0,0 l/m 0,0 km/h (0 Bft) N 9,4 C 11,3 C 0,0 km/h (0 Bft)
21.07.2013 03:00 10,4 C 90 % 1022,5 hPa 0,0 l/m 0,0 km/h (0 Bft) N 8,7 C 10,4 C 0,0 km/h (0 Bft)
21.07.2013 04:00 9,4 C 91 % 1022,6 hPa 0,0 l/m 0,0 km/h (0 Bft) N 8,1 C 9,4 C 0,0 km/h (0 Bft)
21.07.2013 05:00 9,0 C 93 % 1022,7 hPa 0,0 l/m 0,0 km/h (0 Bft) N 7,9 C 9,0 C 0,0 km/h (0 Bft)
21.07.2013 06:00 11,7 C 89 % 1022,8 hPa 0,0 l/m 0,0 km/h (0 Bft) N 9,9 C 11,7 C 0,0 km/h (0 Bft)
21.07.2013 07:00 15,3 C 81 % 1022,8 hPa 0,0 l/m 0,0 km/h (0 Bft) N 12,0 C 15,3 C 0,0 km/h (0 Bft)
21.07.2013 08:00 20,2 C 59 % 1022,8 hPa 0,0 l/m 1,7 km/h (1 Bft) O-SO 11,9 C 20,2 C 4,3 km/h (1 Bft)
21.07.2013 09:00 23,1 C 47 % 1022,7 hPa 0,0 l/m 2,7 km/h (1 Bft) SO 11,2 C 23,1 C 6,7 km/h (2 Bft)
21.07.2013 10:00 24,6 C 42 % 1022,6 hPa 0,0 l/m 4,5 km/h (1 Bft) SO 10,8 C 24,6 C 10,5 km/h (2 Bft)
21.07.2013 11:00 25,7 C 39 % 1022,4 hPa 0,0 l/m 4,7 km/h (1 Bft) O 10,6 C 25,7 C 10,9 km/h (2 Bft)
21.07.2013 12:00 27,0 C 39 % 1022,0 hPa 0,0 l/m 4,6 km/h (1 Bft) O-SO 11,8 C 27,0 C 10,6 km/h (2 Bft)
21.07.2013 13:00 27,9 C 37 % 1021,6 hPa 0,0 l/m 4,4 km/h (1 Bft) O 11,9 C 27,9 C 9,4 km/h (2 Bft)
21.07.2013 14:00 29,0 C 34 % 1021,2 hPa 0,0 l/m 3,9 km/h (1 Bft) O 11,6 C 29,0 C 9,3 km/h (2 Bft)
21.07.2013 15:00 29,7 C 30 % 1020,7 hPa 0,0 l/m 3,8 km/h (1 Bft) SW 10,2 C 29,7 C 8,4 km/h (2 Bft)
21.07.2013 16:00 30,3 C 26 % 1020,1 hPa 0,0 l/m 3,0 km/h (1 Bft) S 8,7 C 30,3 C 7,2 km/h (2 Bft)
21.07.2013 17:00 30,4 C 26 % 1019,7 hPa 0,0 l/m 2,8 km/h (1 Bft) O-NO 9,0 C 30,4 C 6,8 km/h (2 Bft)
21.07.2013 18:00 30,2 C 29 % 1019,3 hPa 0,0 l/m 2,3 km/h (1 Bft) NO 10,2 C 30,2 C 5,6 km/h (2 Bft)
21.07.2013 19:00 30,1 C 31 % 1019,2 hPa 0,0 l/m 1,3 km/h (1 Bft) SO 10,9 C 30,1 C 4,0 km/h (1 Bft)
21.07.2013 20:00 28,3 C 43 % 1019,1 hPa 0,0 l/m 0,0 km/h (0 Bft) N 14,6 C 28,3 C 0,0 km/h (0 Bft)
21.07.2013 21:00 21,2 C 66 % 1019,3 hPa 0,0 l/m 0,2 km/h (0 Bft) N 14,4 C 21,2 C 0,8 km/h (0 Bft)
21.07.2013 22:00 18,3 C 73 % 1019,5 hPa 0,0 l/m 0,0 km/h (0 Bft) N 13,3 C 18,3 C 0,0 km/h (0 Bft)
21.07.2013 23:00 15,4 C 84 % 1019,3 hPa 0,0 l/m 0,0 km/h (0 Bft) N 12,7 C 15,4 C 0,0 km/h (0 Bft)
Min-Datum _ 16.07.13 21.07.13 21.07.13 - 15.07.13 - 16.07.13 16.07.13 15.07.13
_ Min-Zeit 05:35 16:05 20:00 - 00:50 - 05:35 05:35 00:50
Minimum _ 6,5 C 25 % 1019,1 hPa - 0,0 km/h (0 Bft) - 5,8 C 6,5 C 0,0 km/h (0 Bft)
Max-Datum _ 21.07.13 17.07.13 18.07.13 15.07.13 20.07.13 - 18.07.13 21.07.13 19.07.13
_ Max-Zeit 17:45 07:00 08:30 00:00 16:05 - 09:35 17:45 12:35
Maximum _ 30,8 C 97 % 1024,7 hPa 0,0 l/m 11,4 km/h
N-NW (2 Bft)
- 17,2 C 30,8 C 25,7 km/h
NW (4 Bft)
Durchschnitt _ 19,4 C 70 % 1022,2 hPa #0,0 l/m 2,7 km/h (1 Bft) NW 12,8 C 19,4 C 5,9 km/h (2 Bft)